createdAt,value
2016-06-14T00:00:08.225Z,979.66
2016-06-14T00:01:07.526Z,979.68
2016-06-14T00:02:07.544Z,979.68
2016-06-14T00:03:07.546Z,979.69
2016-06-14T00:04:07.566Z,979.68
2016-06-14T00:05:07.568Z,979.67
2016-06-14T00:06:07.572Z,979.71
2016-06-14T00:07:07.575Z,979.69
2016-06-14T00:08:07.578Z,979.67
2016-06-14T00:09:07.581Z,979.67
2016-06-14T00:10:07.600Z,979.65
2016-06-14T00:11:07.603Z,979.65
2016-06-14T00:12:07.841Z,979.65
2016-06-14T00:13:07.609Z,979.64
2016-06-14T00:14:07.846Z,979.62
2016-06-14T00:15:07.678Z,979.66
2016-06-14T00:16:07.633Z,979.65
2016-06-14T00:17:07.887Z,979.63
2016-06-14T00:18:07.656Z,979.69
2016-06-14T00:19:07.659Z,979.69
2016-06-14T00:20:07.693Z,979.66
2016-06-14T00:21:07.712Z,979.66
2016-06-14T00:22:07.699Z,979.68
2016-06-14T00:23:07.686Z,979.7
2016-06-14T00:24:07.705Z,979.69
2016-06-14T00:25:07.927Z,979.68
2016-06-14T00:26:07.914Z,979.65
2016-06-14T00:27:07.730Z,979.68
2016-06-14T00:28:07.717Z,979.68
2016-06-14T00:30:08.270Z,979.71
2016-06-14T00:31:07.976Z,979.69
2016-06-14T00:32:07.777Z,979.66
2016-06-14T00:33:07.780Z,979.7
2016-06-14T00:34:07.798Z,979.71
2016-06-14T00:35:07.973Z,979.65
2016-06-14T00:36:07.805Z,979.69
2016-06-14T00:37:07.979Z,979.66
2016-06-14T00:38:07.795Z,979.64
2016-06-14T00:39:07.798Z,979.62
2016-06-14T00:40:07.802Z,979.61
2016-06-14T00:41:07.851Z,979.65
2016-06-14T00:42:07.807Z,979.61
2016-06-14T00:43:08.061Z,979.65
2016-06-14T00:44:07.830Z,979.63
2016-06-14T00:45:07.832Z,979.64
2016-06-14T00:46:07.836Z,979.66
2016-06-14T00:47:08.072Z,979.63
2016-06-14T00:48:07.857Z,979.62
2016-06-14T00:49:07.891Z,979.63
2016-06-14T00:50:08.098Z,979.6
2016-06-14T00:51:07.866Z,979.58
2016-06-14T00:52:07.916Z,979.61
2016-06-14T00:53:07.919Z,979.59
2016-06-14T00:54:07.923Z,979.61
2016-06-14T00:55:07.925Z,979.63
2016-06-14T00:56:07.945Z,979.57
2016-06-14T00:57:08.354Z,979.6
2016-06-14T00:58:08.122Z,979.62
2016-06-14T00:59:08.329Z,979.58
2016-06-14T01:00:08.347Z,979.59
2016-06-14T01:01:08.350Z,979.61
2016-06-14T01:02:07.978Z,979.56
2016-06-14T01:03:07.981Z,979.55
2016-06-14T01:04:08.000Z,979.57
2016-06-14T01:05:08.191Z,979.62
2016-06-14T01:06:08.412Z,979.59
2016-06-14T01:07:08.010Z,979.56
2016-06-14T01:08:08.028Z,979.55
2016-06-14T01:09:07.999Z,979.55
2016-06-14T01:10:08.003Z,979.57
2016-06-14T01:12:08.227Z,979.57
2016-06-14T01:13:08.247Z,979.56
2016-06-14T01:14:08.047Z,979.55
2016-06-14T01:15:08.065Z,979.55
2016-06-14T01:16:08.052Z,979.57
2016-06-14T01:19:08.093Z,979.59
2016-06-14T01:20:08.065Z,979.57
2016-06-14T01:21:08.114Z,979.61
2016-06-14T01:22:08.322Z,979.6
2016-06-14T01:23:08.120Z,979.6
2016-06-14T01:24:08.748Z,979.6
2016-06-14T01:25:08.143Z,979.56
2016-06-14T01:26:08.115Z,979.56
2016-06-14T01:27:08.352Z,979.55
2016-06-14T01:28:08.121Z,979.57
2016-06-14T01:29:08.124Z,979.57
2016-06-14T01:30:08.142Z,979.56
2016-06-14T01:31:08.177Z,979.55
2016-06-14T01:32:08.180Z,979.56
2016-06-14T01:33:08.401Z,979.53
2016-06-14T01:34:08.170Z,979.51
2016-06-14T01:35:08.173Z,979.52
2016-06-14T01:37:08.179Z,979.55
2016-06-14T01:38:08.182Z,979.55
2016-06-14T01:39:08.202Z,979.6
2016-06-14T01:40:08.205Z,979.56
2016-06-14T01:41:08.441Z,979.58
2016-06-14T01:42:08.461Z,979.59
2016-06-14T01:43:08.229Z,979.58
2016-06-14T01:44:08.264Z,979.56
2016-06-14T01:45:09.032Z,979.6
2016-06-14T01:46:08.238Z,979.57
2016-06-14T01:47:08.289Z,979.6
2016-06-14T01:48:08.291Z,979.57
2016-06-14T01:49:08.279Z,979.56
2016-06-14T01:50:08.282Z,979.54
2016-06-14T01:51:08.286Z,979.54
2016-06-14T01:52:11.303Z,979.55
2016-06-14T01:53:08.292Z,979.51
2016-06-14T01:54:08.309Z,979.53
2016-06-14T01:56:08.738Z,979.55
2016-06-14T01:57:08.319Z,979.55
2016-06-14T01:58:08.338Z,979.51
2016-06-14T02:01:08.784Z,979.5
2016-06-14T02:02:08.381Z,979.55
2016-06-14T02:03:08.384Z,979.51
2016-06-14T02:04:08.560Z,979.56
2016-06-14T02:05:08.578Z,979.53
2016-06-14T02:06:08.378Z,979.51
2016-06-14T02:07:08.381Z,979.45
2016-06-14T02:08:08.384Z,979.49
2016-06-14T02:09:08.403Z,979.48
2016-06-14T02:10:08.406Z,979.48
2016-06-14T02:11:08.393Z,979.48
2016-06-14T02:12:08.412Z,979.47
2016-06-14T02:13:08.415Z,979.46
2016-06-14T02:14:08.450Z,979.51
2016-06-14T02:15:08.452Z,979.48
2016-06-14T02:16:08.440Z,979.46
2016-06-14T02:17:08.443Z,979.46
2016-06-14T02:18:08.447Z,979.48
2016-06-14T02:19:08.449Z,979.47
2016-06-14T02:20:08.467Z,979.49
2016-06-14T02:21:08.471Z,979.46
2016-06-14T02:22:08.473Z,979.46
2016-06-14T02:23:08.477Z,979.46
2016-06-14T02:24:08.480Z,979.48
2016-06-14T02:25:08.483Z,979.48
2016-06-14T02:26:08.502Z,979.5
2016-06-14T02:27:08.505Z,979.47
2016-06-14T02:28:08.508Z,979.47
2016-06-14T02:29:08.511Z,979.44
2016-06-14T02:30:08.514Z,979.42
2016-06-14T02:31:08.517Z,979.45
2016-06-14T02:32:08.536Z,979.43
2016-06-14T02:33:08.539Z,979.47
2016-06-14T02:34:08.543Z,979.5
2016-06-14T02:35:08.749Z,979.46
2016-06-14T02:36:08.548Z,979.44
2016-06-14T02:37:08.567Z,979.47
2016-06-14T02:38:08.773Z,979.52
2016-06-14T02:39:08.573Z,979.51
2016-06-14T02:40:08.576Z,979.49
2016-06-14T02:41:08.595Z,979.5
2016-06-14T02:42:08.599Z,979.48
2016-06-14T02:43:08.601Z,979.48
2016-06-14T02:44:08.605Z,979.45
2016-06-14T02:45:08.608Z,979.45
2016-06-14T02:46:08.625Z,979.48
2016-06-14T02:47:08.629Z,979.49
2016-06-14T02:48:09.039Z,979.51
2016-06-14T02:49:08.839Z,979.53
2016-06-14T02:50:08.842Z,979.51
2016-06-14T02:51:08.860Z,979.53
2016-06-14T02:52:08.660Z,979.49
2016-06-14T02:53:08.663Z,979.47
2016-06-14T02:54:08.682Z,979.5
2016-06-14T02:55:08.669Z,979.49
2016-06-14T02:56:08.704Z,979.53
2016-06-14T02:57:08.753Z,979.53
2016-06-14T02:58:08.709Z,979.56
2016-06-14T02:59:08.760Z,979.6
2016-06-14T03:00:09.106Z,979.57
2016-06-14T03:01:08.782Z,979.57
2016-06-14T03:02:08.722Z,979.58
2016-06-14T03:03:08.725Z,979.59
2016-06-14T03:04:08.728Z,979.58
2016-06-14T03:05:08.731Z,979.59
2016-06-14T03:06:08.734Z,979.6
2016-06-14T03:07:08.754Z,979.63
2016-06-14T03:08:08.756Z,979.62
2016-06-14T03:09:08.759Z,979.65
2016-06-14T03:10:08.762Z,979.64
2016-06-14T03:11:08.765Z,979.7
2016-06-14T03:12:08.816Z,979.67
2016-06-14T03:13:08.803Z,979.67
2016-06-14T03:14:08.790Z,979.68
2016-06-14T03:15:08.855Z,979.7
2016-06-14T03:16:08.812Z,979.76
2016-06-14T03:17:08.800Z,979.73
2016-06-14T03:19:09.040Z,979.75
2016-06-14T03:20:09.043Z,979.78
2016-06-14T03:21:08.843Z,979.75
2016-06-14T03:23:09.068Z,979.72
2016-06-14T03:26:08.858Z,979.77
2016-06-14T03:27:08.862Z,979.73
2016-06-14T03:28:08.865Z,979.76
2016-06-14T03:29:08.882Z,979.76
2016-06-14T03:30:08.886Z,979.72
2016-06-14T03:31:08.888Z,979.77
2016-06-14T03:32:09.096Z,979.76
2016-06-14T03:33:08.911Z,979.76
2016-06-14T03:34:08.914Z,979.76
2016-06-14T03:35:08.917Z,979.73
2016-06-14T03:36:08.920Z,979.74
2016-06-14T03:37:08.923Z,979.77
2016-06-14T03:38:08.927Z,979.74
2016-06-14T03:39:08.946Z,979.77
2016-06-14T03:40:08.949Z,979.73
2016-06-14T03:41:08.951Z,979.72
2016-06-14T03:42:08.954Z,979.78
2016-06-14T03:43:08.973Z,979.75
2016-06-14T03:44:08.976Z,979.79
2016-06-14T03:45:08.979Z,979.78
2016-06-14T03:46:08.982Z,979.8
2016-06-14T03:47:08.985Z,979.81
2016-06-14T03:48:09.004Z,979.82
2016-06-14T03:49:09.007Z,979.9
2016-06-14T03:50:09.010Z,979.83
2016-06-14T03:51:09.029Z,979.84
2016-06-14T03:52:09.235Z,979.84
2016-06-14T03:53:09.441Z,979.87
2016-06-14T03:54:09.460Z,979.88
2016-06-14T03:55:09.057Z,979.89
2016-06-14T03:56:09.278Z,979.91
2016-06-14T03:57:09.079Z,979.9
2016-06-14T03:58:09.082Z,979.92
2016-06-14T03:59:09.085Z,979.91
2016-06-14T04:00:09.244Z,979.95
2016-06-14T04:01:09.091Z,979.93
2016-06-14T04:02:09.109Z,979.92
2016-06-14T04:03:09.097Z,979.97
2016-06-14T04:04:09.101Z,979.93
2016-06-14T04:05:09.118Z,979.96
2016-06-14T04:06:09.356Z,979.96
2016-06-14T04:07:09.124Z,979.99
2016-06-14T04:08:09.128Z,980
2016-06-14T04:09:09.147Z,980.04
2016-06-14T04:10:09.149Z,980.04
2016-06-14T04:11:09.169Z,980.07
2016-06-14T04:12:09.156Z,980.11
2016-06-14T04:13:09.190Z,980.09
2016-06-14T04:14:09.178Z,980.08
2016-06-14T04:15:09.181Z,980.08
2016-06-14T04:16:09.543Z,980.1
2016-06-14T04:17:09.187Z,980.09
2016-06-14T04:18:09.205Z,980.12
2016-06-14T04:19:09.209Z,980.14
2016-06-14T04:20:09.228Z,980.17
2016-06-14T04:21:09.214Z,980.17
2016-06-14T04:22:09.250Z,980.16
2016-06-14T04:23:09.236Z,980.15
2016-06-14T04:24:09.240Z,980.18
2016-06-14T04:25:09.259Z,980.18
2016-06-14T04:26:09.262Z,980.17
2016-06-14T04:27:09.265Z,980.15
2016-06-14T04:28:09.284Z,980.13
2016-06-14T04:29:09.271Z,980.11
2016-06-14T04:30:09.289Z,980.11
2016-06-14T04:31:09.309Z,980.1
2016-06-14T04:32:09.296Z,980.11
2016-06-14T04:33:09.314Z,980.11
2016-06-14T04:34:09.318Z,980.11
2016-06-14T04:35:09.321Z,980.11
2016-06-14T04:36:09.338Z,980.14
2016-06-14T04:37:09.545Z,980.17
2016-06-14T04:38:09.345Z,980.24
2016-06-14T04:39:09.755Z,980.27
2016-06-14T04:40:09.570Z,980.23
2016-06-14T04:41:09.370Z,980.27
2016-06-14T04:42:09.373Z,980.26
2016-06-14T04:43:09.392Z,980.23
2016-06-14T04:44:09.395Z,980.21
2016-06-14T04:45:09.413Z,980.26
2016-06-14T04:46:09.416Z,980.34
2016-06-14T04:47:09.420Z,980.32
2016-06-14T04:48:09.423Z,980.35
2016-06-14T04:49:09.441Z,980.37
2016-06-14T04:50:09.445Z,980.4
2016-06-14T04:51:09.448Z,980.4
2016-06-14T04:52:09.467Z,980.36
2016-06-14T04:53:09.470Z,980.37
2016-06-14T04:54:09.473Z,980.35
2016-06-14T04:55:09.491Z,980.36
2016-06-14T04:56:09.494Z,980.33
2016-06-14T04:57:09.498Z,980.34
2016-06-14T04:58:09.516Z,980.33
2016-06-14T04:59:09.519Z,980.38
2016-06-14T05:00:09.522Z,980.37
2016-06-14T05:01:09.541Z,980.36
2016-06-14T05:02:09.544Z,980.29
2016-06-14T05:03:09.547Z,980.32
2016-06-14T05:04:09.566Z,980.3
2016-06-14T05:05:09.803Z,980.3
2016-06-14T05:06:09.585Z,980.31
2016-06-14T05:07:09.603Z,980.31
2016-06-14T05:08:09.606Z,980.34
2016-06-14T05:09:09.609Z,980.39
2016-06-14T05:10:09.612Z,980.43
2016-06-14T05:11:09.615Z,980.47
2016-06-14T05:12:09.635Z,980.45
2016-06-14T05:13:09.638Z,980.46
2016-06-14T05:14:09.878Z,980.46
2016-06-14T05:15:10.116Z,980.49
2016-06-14T05:17:09.697Z,980.54
2016-06-14T05:21:09.724Z,980.57
2016-06-14T05:22:09.727Z,980.6
2016-06-14T05:23:09.730Z,980.6
2016-06-14T05:24:09.733Z,980.65
2016-06-14T05:25:09.956Z,980.66
2016-06-14T05:26:09.772Z,980.69
2016-06-14T05:27:09.775Z,980.71
2016-06-14T05:28:09.777Z,980.68
2016-06-14T05:29:09.796Z,980.62
2016-06-14T05:30:10.018Z,980.59
2016-06-14T05:31:09.802Z,980.64
2016-06-14T05:32:09.836Z,980.66
2016-06-14T05:33:09.840Z,980.68
2016-06-14T05:34:09.843Z,980.63
2016-06-14T05:35:10.049Z,980.59
2016-06-14T05:36:09.864Z,980.64
2016-06-14T05:37:09.868Z,980.67
2016-06-14T05:38:09.886Z,980.66
2016-06-14T05:39:09.890Z,980.68
2016-06-14T05:40:09.892Z,980.7
2016-06-14T05:41:10.114Z,980.76
2016-06-14T05:42:09.946Z,980.8
2016-06-14T05:44:09.967Z,980.89
2016-06-14T05:45:09.955Z,980.91
2016-06-14T05:46:10.395Z,980.97
2016-06-14T05:47:09.992Z,980.97
2016-06-14T05:48:09.995Z,980.94
2016-06-14T05:49:09.998Z,980.96
2016-06-14T05:50:10.002Z,980.94
2016-06-14T05:51:10.020Z,980.93
2016-06-14T05:52:10.024Z,980.93
2016-06-14T05:53:10.042Z,980.9
2016-06-14T05:54:10.076Z,980.89
2016-06-14T05:55:10.282Z,980.91
2016-06-14T05:56:10.317Z,980.86
2016-06-14T05:57:10.101Z,980.85
2016-06-14T05:58:10.713Z,980.78
2016-06-14T05:59:10.107Z,980.77
2016-06-14T06:00:10.110Z,980.77
2016-06-14T06:01:10.363Z,980.76
2016-06-14T06:02:10.163Z,980.8
2016-06-14T06:03:10.150Z,980.77
2016-06-14T06:04:10.170Z,980.76
2016-06-14T06:05:10.173Z,980.75
2016-06-14T06:06:10.394Z,980.77
2016-06-14T06:07:10.398Z,980.79
2016-06-14T06:08:10.213Z,980.83
2016-06-14T06:09:10.216Z,980.81
2016-06-14T06:10:10.454Z,980.81
2016-06-14T06:11:10.269Z,980.84
2016-06-14T06:12:10.272Z,980.86
2016-06-14T06:13:10.259Z,980.86
2016-06-14T06:14:10.309Z,980.84
2016-06-14T06:15:10.312Z,980.89
2016-06-14T06:16:10.393Z,980.9
2016-06-14T06:17:10.319Z,980.9
2016-06-14T06:19:10.388Z,980.95
2016-06-14T06:20:10.359Z,980.93
2016-06-14T06:21:10.346Z,980.9
2016-06-14T06:22:10.803Z,980.87
2016-06-14T06:23:10.400Z,980.9
2016-06-14T06:24:10.387Z,980.89
2016-06-14T06:25:10.406Z,980.9
2016-06-14T06:26:10.409Z,980.9
2016-06-14T06:27:10.427Z,980.92
2016-06-14T06:28:10.634Z,980.94
2016-06-14T06:29:10.434Z,980.91
2016-06-14T06:30:10.452Z,980.93
2016-06-14T06:31:10.659Z,980.92
2016-06-14T06:32:10.678Z,980.92
2016-06-14T06:33:10.478Z,980.93
2016-06-14T06:34:10.528Z,980.93
2016-06-14T06:35:10.531Z,980.91
2016-06-14T06:36:10.518Z,980.94
2016-06-14T06:37:10.537Z,980.96
2016-06-14T06:38:10.571Z,980.96
2016-06-14T06:39:10.543Z,980.94
2016-06-14T06:40:10.561Z,980.97
2016-06-14T06:41:10.564Z,980.97
2016-06-14T06:42:10.583Z,980.94
2016-06-14T06:43:10.587Z,980.97
2016-06-14T06:44:10.604Z,980.97
2016-06-14T06:45:11.014Z,980.94
2016-06-14T06:46:10.668Z,980.95
2016-06-14T06:47:10.742Z,980.94
2016-06-14T06:48:10.753Z,980.95
2016-06-14T06:49:10.795Z,981.05
2016-06-14T06:50:10.869Z,981
2016-06-14T06:51:11.114Z,980.96
2016-06-14T06:52:10.927Z,980.98
2016-06-14T06:53:10.945Z,981.04
2016-06-14T06:54:10.977Z,981
2016-06-14T06:55:10.994Z,981
2016-06-14T06:56:11.006Z,981.04
2016-06-14T06:57:11.061Z,981.03
2016-06-14T06:59:11.280Z,981.08
2016-06-14T07:00:11.523Z,981.06
2016-06-14T07:01:11.357Z,981.03
2016-06-14T07:03:11.429Z,981.04
2016-06-14T07:04:11.339Z,981.08
2016-06-14T07:05:11.158Z,981.07
2016-06-14T07:06:11.161Z,981.02
2016-06-14T07:07:11.181Z,980.99
2016-06-14T07:08:11.200Z,981
2016-06-14T07:09:11.204Z,981
2016-06-14T07:10:11.206Z,981.03
2016-06-14T07:11:11.429Z,981.04
2016-06-14T07:12:11.261Z,981.02
2016-06-14T07:13:11.264Z,980.97
2016-06-14T07:14:11.283Z,980.92
2016-06-14T07:15:11.302Z,980.9
2016-06-14T07:16:11.524Z,980.91
2016-06-14T07:17:11.324Z,980.92
2016-06-14T07:18:11.327Z,980.96
2016-06-14T07:19:11.330Z,980.99
2016-06-14T07:20:11.350Z,981.03
2016-06-14T07:21:11.570Z,980.9
2016-06-14T07:22:11.371Z,980.89
2016-06-14T07:24:11.612Z,980.83
2016-06-14T07:25:11.411Z,980.81
2016-06-14T07:26:11.430Z,980.83
2016-06-14T07:27:11.433Z,980.72
2016-06-14T07:28:11.452Z,980.69
2016-06-14T07:29:11.455Z,980.77
2016-06-14T07:30:11.708Z,980.82
2016-06-14T07:32:11.511Z,980.89
2016-06-14T07:33:11.718Z,980.87
2016-06-14T07:34:11.549Z,980.8
2016-06-14T07:35:11.551Z,980.74
2016-06-14T07:36:11.555Z,980.67
2016-06-14T07:37:11.573Z,980.62
2016-06-14T07:38:11.575Z,980.57
2016-06-14T07:39:11.782Z,980.62
2016-06-14T07:40:12.207Z,980.55
2016-06-14T07:41:11.632Z,980.59
2016-06-14T07:42:11.620Z,980.63
2016-06-14T07:43:11.638Z,980.6
2016-06-14T07:44:11.673Z,980.63
2016-06-14T07:45:11.676Z,980.68
2016-06-14T07:46:12.133Z,980.74
2016-06-14T07:47:11.697Z,980.71
2016-06-14T07:48:11.700Z,980.73
2016-06-14T07:49:11.954Z,980.83
2016-06-14T07:50:11.723Z,980.91
2016-06-14T07:51:11.959Z,980.83
2016-06-14T07:53:11.763Z,980.73
2016-06-14T07:54:11.969Z,980.84
2016-06-14T07:55:11.988Z,980.82
2016-06-14T07:57:11.822Z,980.93
2016-06-14T07:58:12.045Z,981
2016-06-14T07:59:11.844Z,980.98
2016-06-14T08:00:12.050Z,981.03
2016-06-14T08:01:11.866Z,980.93
2016-06-14T08:02:11.868Z,980.86
2016-06-14T08:03:11.888Z,980.9
2016-06-14T08:04:11.891Z,980.9
2016-06-14T08:05:11.909Z,980.83
2016-06-14T08:06:11.928Z,980.73
2016-06-14T08:07:11.930Z,980.72
2016-06-14T08:08:11.934Z,980.72
2016-06-14T08:09:11.968Z,980.73
2016-06-14T08:10:11.987Z,980.72
2016-06-14T08:11:11.974Z,980.77
2016-06-14T08:12:12.228Z,980.8
2016-06-14T08:13:12.230Z,980.87
2016-06-14T08:14:12.015Z,980.87
2016-06-14T08:15:12.033Z,981
2016-06-14T08:16:12.240Z,980.95
2016-06-14T08:17:12.070Z,980.93
2016-06-14T08:18:12.073Z,981.05
2016-06-14T08:20:12.315Z,981.01
2016-06-14T08:21:12.146Z,981.04
2016-06-14T08:22:12.133Z,980.99
2016-06-14T08:23:12.152Z,980.96
2016-06-14T08:24:12.155Z,980.99
2016-06-14T08:25:12.159Z,980.95
2016-06-14T08:26:12.395Z,980.93
2016-06-14T08:27:12.195Z,981.01
2016-06-14T08:28:12.839Z,981.01
2016-06-14T08:29:12.218Z,981.01
2016-06-14T08:30:12.221Z,980.93
2016-06-14T08:31:13.082Z,980.9
2016-06-14T08:32:13.696Z,980.84
2016-06-14T08:33:12.480Z,980.83
2016-06-14T08:34:12.294Z,980.85
2016-06-14T08:36:12.301Z,981.07
2016-06-14T08:37:12.320Z,981.07
2016-06-14T08:38:12.526Z,980.97
2016-06-14T08:39:12.545Z,980.94
2016-06-14T08:40:12.563Z,980.88
2016-06-14T08:41:12.363Z,980.85
2016-06-14T08:42:12.383Z,980.82
2016-06-14T08:43:12.417Z,980.79
2016-06-14T08:44:12.403Z,980.74
2016-06-14T08:45:12.423Z,980.7
2016-06-14T08:46:12.753Z,980.71
2016-06-14T08:47:12.445Z,980.76
2016-06-14T08:48:12.698Z,980.83
2016-06-14T08:49:12.482Z,980.94
2016-06-14T08:50:12.704Z,980.83
2016-06-14T08:51:12.505Z,980.82
2016-06-14T08:52:12.522Z,980.78
2016-06-14T08:54:12.544Z,980.73
2016-06-14T08:55:12.563Z,980.75
2016-06-14T08:56:13.175Z,980.78
2016-06-14T08:59:12.621Z,980.74
2016-06-14T09:00:12.625Z,980.76
2016-06-14T09:01:12.660Z,980.72
2016-06-14T09:02:12.663Z,980.76
2016-06-14T09:03:12.666Z,980.82
2016-06-14T09:04:12.887Z,980.91
2016-06-14T09:05:12.922Z,980.86
2016-06-14T09:06:12.925Z,980.85
2016-06-14T09:07:12.724Z,980.91
2016-06-14T09:08:12.728Z,980.94
2016-06-14T09:09:12.747Z,980.98
2016-06-14T09:10:12.780Z,981.04
2016-06-14T09:11:12.783Z,980.77
2016-06-14T09:12:12.802Z,980.77
2016-06-14T09:13:12.806Z,980.75
2016-06-14T09:14:12.825Z,980.83
2016-06-14T09:15:12.843Z,980.72
2016-06-14T09:16:13.049Z,980.53
2016-06-14T09:17:13.068Z,980.39
2016-06-14T09:18:12.883Z,980.34
2016-06-14T09:19:12.902Z,980.36
2016-06-14T09:21:12.925Z,980.47
2016-06-14T09:22:13.161Z,980.38
2016-06-14T09:23:12.962Z,980.43
2016-06-14T09:24:12.996Z,980.49
2016-06-14T09:25:12.999Z,980.52
2016-06-14T09:26:13.002Z,980.56
2016-06-14T09:27:13.005Z,980.5
2016-06-14T09:28:13.024Z,980.43
2016-06-14T09:29:13.027Z,980.38
2016-06-14T09:30:13.061Z,980.37
2016-06-14T09:31:13.330Z,980.38
2016-06-14T09:32:13.380Z,980.47
2016-06-14T09:33:13.117Z,980.49
2016-06-14T09:34:13.105Z,980.5
2016-06-14T09:35:13.139Z,980.49
2016-06-14T09:36:13.579Z,980.5
2016-06-14T09:39:13.198Z,980.54
2016-06-14T09:40:13.201Z,980.6
2016-06-14T09:41:13.203Z,980.51
2016-06-14T09:42:13.223Z,980.53
2016-06-14T09:43:13.242Z,980.63
2016-06-14T09:44:13.260Z,980.68
2016-06-14T09:45:13.296Z,980.7
2016-06-14T09:46:13.298Z,980.81
2016-06-14T09:47:13.302Z,980.89
2016-06-14T09:48:13.319Z,980.78
2016-06-14T09:49:13.557Z,980.64
2016-06-14T09:50:13.357Z,980.54
2016-06-14T09:51:13.359Z,980.47
2016-06-14T09:52:13.395Z,980.43
2016-06-14T09:53:13.412Z,980.38
2016-06-14T09:54:13.401Z,980.28
2016-06-14T09:55:13.622Z,980.28
2016-06-14T09:56:13.422Z,980.17
2016-06-14T09:57:13.441Z,980.18
2016-06-14T09:58:13.460Z,980.16
2016-06-14T09:59:13.463Z,980.16
2016-06-14T10:00:13.684Z,980.16
2016-06-14T10:01:13.953Z,980.19
2016-06-14T10:02:13.894Z,980.16
2016-06-14T10:03:13.569Z,980.18
2016-06-14T10:04:13.540Z,980.2
2016-06-14T10:05:13.607Z,980.24
2016-06-14T10:06:13.781Z,980.3
2016-06-14T10:07:13.628Z,980.34
2016-06-14T10:08:13.600Z,980.37
2016-06-14T10:09:13.603Z,980.44
2016-06-14T10:10:13.825Z,980.46
2016-06-14T10:11:13.859Z,980.45
2016-06-14T10:12:13.659Z,980.52
2016-06-14T10:13:13.662Z,980.5
2016-06-14T10:14:13.680Z,980.43
2016-06-14T10:15:13.683Z,980.35
2016-06-14T10:16:13.702Z,980.29
2016-06-14T10:17:13.721Z,980.25
2016-06-14T10:18:13.756Z,980.15
2016-06-14T10:19:13.743Z,980.2
2016-06-14T10:20:13.995Z,980.23
2016-06-14T10:21:13.781Z,980.18
2016-06-14T10:22:13.924Z,980.22
2016-06-14T10:23:13.802Z,980.19
2016-06-14T10:24:14.196Z,980.21
2016-06-14T10:25:13.824Z,980.23
2016-06-14T10:26:14.077Z,980.33
2016-06-14T10:28:13.865Z,980.43
2016-06-14T10:29:13.898Z,980.41
2016-06-14T10:30:13.964Z,980.41
2016-06-14T10:31:13.920Z,980.33
2016-06-14T10:32:13.923Z,980.34
2016-06-14T10:33:14.005Z,980.36
2016-06-14T10:35:14.198Z,980.32
2016-06-14T10:37:14.017Z,980.33
2016-06-14T10:38:14.083Z,980.36
2016-06-14T10:39:14.086Z,980.31
2016-06-14T10:40:14.090Z,980.35
2016-06-14T10:41:14.045Z,980.37
2016-06-14T10:42:14.110Z,980.39
2016-06-14T10:43:14.316Z,980.4
2016-06-14T10:44:14.164Z,980.41
2016-06-14T10:45:14.120Z,980.44
2016-06-14T10:46:14.200Z,980.44
2016-06-14T10:47:14.142Z,980.46
2016-06-14T10:48:14.222Z,980.4
2016-06-14T10:49:14.178Z,980.41
2016-06-14T10:50:14.182Z,980.38
2016-06-14T10:51:14.201Z,980.4
2016-06-14T10:52:14.219Z,980.38
2016-06-14T10:53:14.300Z,980.4
2016-06-14T10:54:14.461Z,980.38
2016-06-14T10:55:14.244Z,980.4
2016-06-14T10:56:14.450Z,980.45
2016-06-14T10:57:14.282Z,980.5
2016-06-14T10:58:14.519Z,980.54
2016-06-14T10:59:14.318Z,980.47
2016-06-14T11:00:14.431Z,980.45
2016-06-14T11:01:14.669Z,980.49
2016-06-14T11:03:14.378Z,980.34
2016-06-14T11:04:14.553Z,980.3
2016-06-14T11:05:14.431Z,980.26
2016-06-14T11:06:14.684Z,980.23
2016-06-14T11:07:14.640Z,980.27
2016-06-14T11:08:14.503Z,980.24
2016-06-14T11:09:14.459Z,980.25
2016-06-14T11:10:14.540Z,980.28
2016-06-14T11:11:14.480Z,980.2
2016-06-14T11:12:14.937Z,980.25
2016-06-14T11:13:14.502Z,980.22
2016-06-14T11:14:14.724Z,980.22
2016-06-14T11:16:14.934Z,980.26
2016-06-14T11:17:14.577Z,980.22
2016-06-14T11:18:14.581Z,980.24
2016-06-14T11:19:14.615Z,980.16
2016-06-14T11:21:14.637Z,980.11
2016-06-14T11:22:14.733Z,980.1
2016-06-14T11:23:14.784Z,980.14
2016-06-14T11:24:14.709Z,980.1
2016-06-14T11:25:14.695Z,980.12
2016-06-14T11:26:14.918Z,980.1
2016-06-14T11:27:14.843Z,979.97
2016-06-14T11:28:14.845Z,979.91
2016-06-14T11:29:14.818Z,979.93
2016-06-14T11:30:14.805Z,979.91
2016-06-14T11:31:14.855Z,979.85
2016-06-14T11:33:14.830Z,979.8
2016-06-14T11:34:14.848Z,979.8
2016-06-14T11:35:14.945Z,979.74
2016-06-14T11:37:14.905Z,979.72
2016-06-14T11:38:15.533Z,979.72
2016-06-14T11:39:15.005Z,979.67
2016-06-14T11:40:14.930Z,979.69
2016-06-14T11:41:14.947Z,979.7
2016-06-14T11:42:15.201Z,979.72
2016-06-14T11:43:15.158Z,979.78
2016-06-14T11:44:15.145Z,979.72
2016-06-14T11:45:14.992Z,979.69
2016-06-14T11:46:15.026Z,979.76
2016-06-14T11:47:15.591Z,979.73
2016-06-14T11:48:15.063Z,979.71
2016-06-14T11:49:16.644Z,979.74
2016-06-14T11:50:15.086Z,979.75
2016-06-14T11:51:15.183Z,979.84
2016-06-14T11:52:15.232Z,979.87
2016-06-14T11:53:15.407Z,979.85
2016-06-14T11:54:15.300Z,979.8
2016-06-14T11:55:15.304Z,979.74
2016-06-14T11:56:15.213Z,979.74
2016-06-14T11:57:15.200Z,979.76
2016-06-14T11:58:15.282Z,979.76
2016-06-14T11:59:15.238Z,979.79
2016-06-14T12:00:15.303Z,979.77
2016-06-14T12:01:15.322Z,979.83
2016-06-14T12:02:15.481Z,979.89
2016-06-14T12:04:15.519Z,980
2016-06-14T12:05:15.444Z,980.06
2016-06-14T12:06:15.321Z,980.01
2016-06-14T12:07:15.340Z,979.92
2016-06-14T12:08:15.344Z,979.91
2016-06-14T12:09:15.488Z,979.88
2016-06-14T12:10:15.491Z,979.89
2016-06-14T12:12:15.434Z,979.98
2016-06-14T12:13:15.500Z,980
2016-06-14T12:14:15.440Z,979.97
2016-06-14T12:15:15.491Z,979.93
2016-06-14T12:16:15.555Z,979.91
2016-06-14T12:17:15.856Z,979.8
2016-06-14T12:18:16.015Z,979.67
2016-06-14T12:19:15.659Z,979.7
2016-06-14T12:20:15.536Z,979.71
2016-06-14T12:21:16.071Z,979.71
2016-06-14T12:22:15.840Z,979.72
2016-06-14T12:23:15.984Z,979.74
2016-06-14T12:26:15.634Z,979.82
2016-06-14T12:27:15.668Z,979.73
2016-06-14T12:28:15.796Z,979.64
2016-06-14T12:29:15.877Z,979.58
2016-06-14T12:30:15.817Z,979.57
2016-06-14T12:31:15.851Z,979.52
2016-06-14T12:32:15.808Z,979.61
2016-06-14T12:33:15.749Z,979.52
2016-06-14T12:34:15.830Z,979.52
2016-06-14T12:35:15.771Z,979.51
2016-06-14T12:36:15.789Z,979.52
2016-06-14T12:38:15.953Z,979.46
2016-06-14T12:39:15.908Z,979.46
2016-06-14T12:40:16.192Z,979.44
2016-06-14T12:41:15.915Z,979.5
2016-06-14T12:42:15.948Z,979.53
2016-06-14T12:43:15.888Z,979.47
2016-06-14T12:44:15.939Z,979.53
2016-06-14T12:45:16.005Z,979.54
2016-06-14T12:46:16.008Z,979.55
2016-06-14T12:47:16.323Z,979.55
2016-06-14T12:48:16.108Z,979.52
2016-06-14T12:49:16.268Z,979.47
2016-06-14T12:50:16.020Z,979.49
2016-06-14T12:51:16.086Z,979.49
2016-06-14T12:52:16.041Z,979.51
2016-06-14T12:53:16.060Z,979.54
2016-06-14T12:54:16.282Z,979.5
2016-06-14T12:55:16.098Z,979.51
2016-06-14T12:57:16.214Z,979.49
2016-06-14T12:58:16.185Z,979.47
2016-06-14T12:59:16.220Z,979.48
2016-06-14T13:00:16.160Z,979.5
2016-06-14T13:01:16.194Z,979.52
2016-06-14T13:02:16.213Z,979.54
2016-06-14T13:03:16.232Z,979.57
2016-06-14T13:04:16.469Z,979.6
2016-06-14T13:05:16.675Z,979.61
2016-06-14T13:06:16.522Z,979.67
2016-06-14T13:07:16.275Z,979.76
2016-06-14T13:08:16.826Z,979.83
2016-06-14T13:09:16.548Z,979.86
2016-06-14T13:10:16.332Z,979.9
2016-06-14T13:11:16.366Z,979.78
2016-06-14T13:12:16.385Z,979.71
2016-06-14T13:13:16.622Z,979.6
2016-06-14T13:14:16.609Z,979.63
2016-06-14T13:15:16.456Z,979.56
2016-06-14T13:16:16.756Z,979.53
2016-06-14T13:17:16.447Z,979.52